| time (UTC) | temp F | wind direction | speed MPH | gust MPH | rain 1hr in | rain 24hr in | rain mn in | humidity % | barometer mb |
| 20260901013525 | 62 | 173 | 3.0 | 9.0 | 0.00 | 0.16 | 0.16 | 73 | 1018.2 |
| 20260901013028 | 62 | 153 | 4.0 | 12.0 | 0.00 | 0.16 | 0.16 | 72 | 1018.3 |
| 20260901012525 | 62 | 168 | 3.0 | 12.0 | 0.00 | 0.16 | 0.16 | 73 | 1018.3 |
| 20260901012025 | 62 | 243 | 2.0 | 8.0 | 0.00 | 0.16 | 0.16 | 73 | 1018.2 |
| 20260901011525 | 62 | 159 | 2.0 | 8.0 | 0.00 | 0.16 | 0.16 | 73 | 1018.2 |
| 20260901011024 | 62 | 164 | 2.0 | 11.0 | 0.00 | 0.16 | 0.16 | 73 | 1018.3 |
| 20260901010524 | 61 | 141 | 2.0 | 8.0 | 0.01 | 0.16 | 0.16 | 73 | 1018.3 |
| 20260901010024 | 61 | 155 | 3.0 | 8.0 | 0.02 | 0.16 | 0.16 | 74 | 1018.2 |
| 20260901005524 | 62 | 198 | 2.0 | 8.0 | 0.02 | 0.16 | 0.16 | 74 | 1018.3 |
| 20260901005026 | 62 | 155 | 2.0 | 7.0 | 0.02 | 0.16 | 0.16 | 73 | 1018.4 |
| 20260901004523 | 62 | 157 | 2.0 | 11.0 | 0.02 | 0.16 | 0.16 | 73 | 1018.5 |
| 20260901004023 | 61 | 142 | 3.0 | 8.0 | 0.02 | 0.16 | 0.16 | 74 | 1018.4 |
| 20260901003523 | 61 | 139 | 2.0 | 12.0 | 0.02 | 0.16 | 0.16 | 76 | 1018.4 |
| 20260901003024 | 61 | 139 | 4.0 | 12.0 | 0.03 | 0.16 | 0.16 | 77 | 1018.5 |
| 20260901002523 | 61 | 149 | 4.0 | 10.0 | 0.04 | 0.16 | 0.16 | 78 | 1018.5 |
| 20260901002024 | 61 | 134 | 4.0 | 12.0 | 0.05 | 0.16 | 0.16 | 77 | 1018.5 |
| 20260901001524 | 62 | 115 | 5.0 | 16.0 | 0.05 | 0.16 | 0.16 | 75 | 1018.6 |
| 20260901001022 | 62 | 136 | 8.0 | 16.0 | 0.06 | 0.15 | 0.15 | 73 | 1018.6 |
| 20260901000520 | 63 | 122 | 6.0 | 12.0 | 0.10 | 0.15 | 0.15 | 73 | 1018.6 |
| 20260901000021 | 63 | 131 | 2.0 | 7.0 | 0.13 | 0.14 | 0.14 | 72 | 1018.6 |
| 20260831235522 | 63 | 157 | 3.0 | 7.0 | 0.14 | 0.14 | 0.14 | 72 | 1018.3 |
| 20260831235018 | 63 | 134 | 1.0 | 8.0 | 0.14 | 0.14 | 0.14 | 75 | 1017.9 |
| 20260831234518 | 63 | 115 | 1.0 | 8.0 | 0.14 | 0.14 | 0.14 | 78 | 1017.9 |
| 20260831234017 | 63 | 139 | 2.0 | 8.0 | 0.14 | 0.14 | 0.14 | 76 | 1017.6 |
| 20260831233515 | 63 | 248 | 3.0 | 10.0 | 0.14 | 0.14 | 0.14 | 73 | 1017.1 |
| 20260831233016 | 63 | 262 | 5.0 | 12.0 | 0.13 | 0.13 | 0.13 | 74 | 1017.0 |
| 20260831232515 | 63 | 222 | 3.0 | 12.0 | 0.12 | 0.12 | 0.12 | 76 | 1016.9 |
| 20260831232015 | 62 | 243 | 3.0 | 11.0 | 0.11 | 0.11 | 0.11 | 77 | 1016.7 |
| 20260831231527 | 62 | 253 | 4.0 | 17.0 | 0.10 | 0.10 | 0.10 | 75 | 1016.6 |
| 20260831231015 | 62 | 243 | 6.0 | 23.0 | 0.08 | 0.08 | 0.08 | 74 | 1016.4 |
| 20260831230515 | 62 | 246 | 7.0 | 23.0 | 0.04 | 0.04 | 0.04 | 75 | 1016.5 |
| 20260831230013 | 62 | 221 | 11.0 | 27.0 | 0.01 | 0.01 | 0.01 | 72 | 1016.2 |
| 20260831225513 | 65 | 255 | 17.0 | 27.0 | 0.00 | 0.00 | 0.00 | 64 | 1015.6 |
| 20260831225013 | 69 | 255 | 11.0 | 39.0 | 0.00 | 0.00 | 0.00 | 52 | 1015.8 |
| 20260831224513 | 72 | 256 | 17.0 | 39.0 | 0.00 | 0.00 | 0.00 | 45 | 1015.0 |
| 20260831224013 | 75 | 235 | 8.0 | 22.0 | 0.00 | 0.00 | 0.00 | 41 | 1014.4 |
| 20260831223513 | 76 | 156 | 6.0 | 15.0 | 0.00 | 0.00 | 0.00 | 43 | 1014.1 |
| 20260831223013 | 76 | 212 | 4.0 | 16.0 | 0.00 | 0.00 | 0.00 | 43 | 1013.7 |
| 20260831222513 | 76 | 136 | 9.0 | 20.0 | 0.00 | 0.00 | 0.00 | 42 | 1013.2 |
| 20260831222011 | 77 | 188 | 10.0 | 20.0 | 0.00 | 0.00 | 0.00 | 41 | 1013.2 |
| 20260831221514 | 77 | 143 | 11.0 | 20.0 | 0.00 | 0.00 | 0.00 | 42 | 1013.1 |
| 20260831221012 | 77 | 142 | 9.0 | 20.0 | 0.00 | 0.00 | 0.00 | 43 | 1013.1 |
| 20260831220511 | 78 | 181 | 9.0 | 21.0 | 0.00 | 0.00 | 0.00 | 44 | 1013.0 |
| 20260831220010 | 79 | 170 | 6.0 | 19.0 | 0.00 | 0.00 | 0.00 | 44 | 1012.9 |
| 20260831215510 | 79 | 117 | 9.0 | 18.0 | 0.00 | 0.00 | 0.00 | 43 | 1012.8 |
| 20260831215011 | 80 | 162 | 7.0 | 21.0 | 0.00 | 0.00 | 0.00 | 40 | 1012.8 |
| 20260831214508 | 81 | 175 | 9.0 | 21.0 | 0.00 | 0.00 | 0.00 | 36 | 1012.9 |
| 20260831214008 | 82 | 105 | 4.0 | 11.0 | 0.00 | 0.00 | 0.00 | 34 | 1012.9 |
| 20260831213512 | 82 | 155 | 4.0 | 16.0 | 0.00 | 0.00 | 0.00 | 33 | 1013.0 |
| 20260831213007 | 82 | 176 | 6.0 | 17.0 | 0.00 | 0.00 | 0.00 | 32 | 1013.0 |
| 20260831212507 | 83 | 110 | 9.0 | 17.0 | 0.00 | 0.00 | 0.00 | 32 | 1013.1 |
| 20260831212005 | 82 | 146 | 6.0 | 13.0 | 0.00 | 0.00 | 0.00 | 33 | 1013.2 |
| 20260831211508 | 82 | 181 | 8.0 | 16.0 | 0.00 | 0.00 | 0.00 | 33 | 1013.2 |
| 20260831211002 | 82 | 134 | 6.0 | 16.0 | 0.00 | 0.00 | 0.00 | 34 | 1013.2 |
| 20260831210502 | 81 | 118 | 8.0 | 15.0 | 0.00 | 0.00 | 0.00 | 33 | 1013.3 |
| 20260831210004 | 81 | 170 | 7.0 | 16.0 | 0.00 | 0.00 | 0.00 | 33 | 1013.3 |
| 20260831205503 | 81 | 134 | 7.0 | 16.0 | 0.00 | 0.00 | 0.00 | 34 | 1013.3 |
| 20260831205003 | 81 | 115 | 8.0 | 16.0 | 0.00 | 0.00 | 0.00 | 34 | 1013.5 |
| 20260831204600 | 81 | 124 | 9.0 | 15.0 | 0.00 | 0.00 | 0.00 | 34 | 1013.6 |
| 20260831204101 | 81 | 140 | 9.0 | 15.0 | 0.00 | 0.00 | 0.00 | 35 | 1013.7 |
| 20260831203558 | 81 | 76 | 7.0 | 13.0 | 0.00 | 0.00 | 0.00 | 35 | 1013.8 |
| 20260831203058 | 82 | 137 | 8.0 | 13.0 | 0.00 | 0.00 | 0.00 | 34 | 1013.8 |
| 20260831202559 | 81 | 122 | 5.0 | 12.0 | 0.00 | 0.00 | 0.00 | 36 | 1013.8 |
| 20260831202057 | 81 | 120 | 6.0 | 15.0 | 0.00 | 0.00 | 0.00 | 35 | 1013.9 |
| 20260831201556 | 81 | 128 | 6.0 | 15.0 | 0.00 | 0.00 | 0.00 | 35 | 1014.0 |
| 20260831201057 | 81 | 129 | 7.0 | 13.0 | 0.00 | 0.00 | 0.00 | 36 | 1014.0 |
| 20260831200553 | 81 | 125 | 7.0 | 14.0 | 0.00 | 0.00 | 0.00 | 36 | 1014.2 |
| 20260831200056 | 81 | 119 | 7.0 | 15.0 | 0.00 | 0.00 | 0.00 | 37 | 1014.3 |
| 20260831195552 | 81 | 193 | 7.0 | 15.0 | 0.00 | 0.00 | 0.00 | 37 | 1014.4 |
| 20260831195051 | 81 | 132 | 9.0 | 15.0 | 0.00 | 0.00 | 0.00 | 36 | 1014.6 |
| 20260831194617 | 80 | 141 | 7.0 | 18.0 | 0.00 | 0.00 | 0.00 | 36 | 1014.5 |
| 20260831194049 | 80 | 230 | 10.0 | 18.0 | 0.00 | 0.00 | 0.00 | 37 | 1014.6 |
| 20260831193550 | 80 | 143 | 10.0 | 16.0 | 0.00 | 0.00 | 0.00 | 37 | 1014.6 |
| 20260831193047 | 79 | 130 | 9.0 | 16.0 | 0.00 | 0.00 | 0.00 | 38 | 1014.8 |
| 20260831192547 | 78 | 123 | 7.0 | 17.0 | 0.00 | 0.00 | 0.00 | 40 | 1014.9 |
| 20260831192044 | 78 | 153 | 6.0 | 21.0 | 0.00 | 0.00 | 0.00 | 40 | 1014.9 |
| 20260831191543 | 78 | 127 | 8.0 | 17.0 | 0.00 | 0.00 | 0.00 | 39 | 1015.0 |
| 20260831191046 | 78 | 146 | 8.0 | 17.0 | 0.00 | 0.00 | 0.00 | 40 | 1015.0 |
| 20260831190541 | 77 | 152 | 8.0 | 17.0 | 0.00 | 0.00 | 0.00 | 40 | 1015.1 |
| 20260831190044 | 77 | 181 | 8.0 | 18.0 | 0.00 | 0.00 | 0.00 | 41 | 1015.0 |
| 20260831185539 | 77 | 127 | 8.0 | 18.0 | 0.00 | 0.00 | 0.00 | 42 | 1015.2 |
| 20260831185037 | 76 | 176 | 4.0 | 13.0 | 0.00 | 0.00 | 0.00 | 44 | 1015.2 |
| 20260831184537 | 76 | 148 | 6.0 | 13.0 | 0.00 | 0.00 | 0.00 | 43 | 1015.3 |
| 20260831184036 | 76 | 191 | 6.0 | 12.0 | 0.00 | 0.00 | 0.00 | 44 | 1015.3 |
| 20260831183534 | 75 | 135 | 7.0 | 15.0 | 0.00 | 0.00 | 0.00 | 44 | 1015.5 |
| 20260831183034 | 75 | 160 | 7.0 | 15.0 | 0.00 | 0.00 | 0.00 | 45 | 1015.5 |
| 20260831182533 | 76 | 137 | 7.0 | 14.0 | 0.00 | 0.00 | 0.00 | 46 | 1015.7 |
| 20260831182035 | 75 | 110 | 9.0 | 18.0 | 0.00 | 0.00 | 0.00 | 45 | 1015.7 |
| 20260831181534 | 75 | 117 | 8.0 | 18.0 | 0.00 | 0.00 | 0.00 | 46 | 1015.8 |
| 20260831181031 | 75 | 165 | 7.0 | 16.0 | 0.00 | 0.00 | 0.00 | 45 | 1015.9 |
| 20260831180531 | 75 | 190 | 6.0 | 15.0 | 0.00 | 0.00 | 0.00 | 46 | 1016.0 |
| 20260831180031 | 75 | 134 | 7.0 | 17.0 | 0.00 | 0.00 | 0.00 | 45 | 1016.0 |
| 20260831175530 | 76 | 122 | 8.0 | 18.0 | 0.00 | 0.00 | 0.00 | 46 | 1016.1 |
| 20260831175030 | 75 | 130 | 9.0 | 18.0 | 0.00 | 0.00 | 0.00 | 47 | 1016.1 |
| 20260831174532 | 74 | 148 | 6.0 | 14.0 | 0.00 | 0.00 | 0.00 | 49 | 1016.1 |
| 20260831174029 | 74 | 191 | 7.0 | 13.0 | 0.00 | 0.00 | 0.00 | 49 | 1016.1 |
| 20260831173530 | 74 | 172 | 6.0 | 12.0 | 0.00 | 0.00 | 0.00 | 50 | 1016.3 |
| 20260831173028 | 74 | 110 | 5.0 | 12.0 | 0.00 | 0.00 | 0.00 | 51 | 1016.4 |
| 20260831172529 | 74 | 213 | 2.0 | 14.0 | 0.00 | 0.00 | 0.00 | 51 | 1016.4 |
| 20260831172029 | 74 | 221 | 6.0 | 14.0 | 0.00 | 0.00 | 0.00 | 50 | 1016.4 |
| 20260831171528 | 74 | 134 | 3.0 | 11.0 | 0.00 | 0.00 | 0.00 | 51 | 1016.5 |
| 20260831171128 | 74 | 100 | 4.0 | 12.0 | 0.00 | 0.00 | 0.00 | 52 | 1016.6 |
| 20260831170527 | 73 | 150 | 6.0 | 12.0 | 0.00 | 0.00 | 0.00 | 53 | 1016.5 |
| 20260831170027 | 73 | 113 | 8.0 | 13.0 | 0.00 | 0.00 | 0.00 | 52 | 1016.5 |
| 20260831165527 | 73 | 167 | 6.0 | 13.0 | 0.00 | 0.00 | 0.00 | 52 | 1016.6 |
| 20260831165026 | 73 | 195 | 3.0 | 14.0 | 0.00 | 0.00 | 0.00 | 53 | 1016.6 |
| 20260831164526 | 72 | 157 | 6.0 | 14.0 | 0.00 | 0.00 | 0.00 | 52 | 1016.6 |
| 20260831164025 | 73 | 93 | 5.0 | 13.0 | 0.00 | 0.00 | 0.00 | 52 | 1016.6 |
| 20260831163525 | 73 | 110 | 7.0 | 13.0 | 0.00 | 0.00 | 0.00 | 51 | 1016.6 |
| 20260831163028 | 73 | 129 | 7.0 | 14.0 | 0.00 | 0.00 | 0.00 | 50 | 1016.5 |
| 20260831162525 | 74 | 145 | 4.0 | 14.0 | 0.00 | 0.00 | 0.00 | 47 | 1016.5 |
| 20260831162024 | 74 | 131 | 5.0 | 13.0 | 0.00 | 0.00 | 0.00 | 45 | 1016.3 |
| 20260831161531 | 75 | 140 | 8.0 | 15.0 | 0.00 | 0.00 | 0.00 | 44 | 1016.3 |
| 20260831161024 | 75 | 141 | 8.0 | 15.0 | 0.00 | 0.00 | 0.00 | 43 | 1016.2 |
| 20260831160523 | 75 | 208 | 4.0 | 11.0 | 0.00 | 0.00 | 0.00 | 45 | 1016.2 |
| 20260831160022 | 74 | 134 | 4.0 | 11.0 | 0.00 | 0.00 | 0.00 | 48 | 1016.1 |
| 20260831155523 | 74 | 189 | 4.0 | 9.0 | 0.00 | 0.01 | 0.00 | 50 | 1016.1 |
| 20260831155020 | 74 | 207 | 4.0 | 8.0 | 0.00 | 0.01 | 0.00 | 49 | 1016.1 |
| 20260831154520 | 73 | 141 | 2.0 | 7.0 | 0.00 | 0.01 | 0.00 | 52 | 1016.1 |
| 20260831154023 | 73 | 103 | 0.0 | 0.0 | 0.00 | 0.01 | 0.00 | 55 | 1016.1 |
| 20260831153517 | 73 | 118 | 0.0 | 2.0 | 0.00 | 0.01 | 0.00 | 55 | 1016.4 |
| 20260831153016 | 72 | 82 | 1.0 | 3.0 | 0.00 | 0.01 | 0.00 | 55 | 1016.3 |
| 20260831152515 | 71 | 149 | 0.0 | 5.0 | 0.00 | 0.01 | 0.00 | 58 | 1016.4 |
| 20260831152017 | 71 | 98 | 2.0 | 5.0 | 0.00 | 0.01 | 0.00 | 57 | 1016.4 |
| 20260831151514 | 70 | 158 | 0.0 | 4.0 | 0.00 | 0.01 | 0.00 | 60 | 1016.5 |
| 20260831151010 | 69 | 132 | 1.0 | 4.0 | 0.00 | 0.01 | 0.00 | 60 | 1016.6 |
| 20260831150508 | 69 | 157 | 1.0 | 5.0 | 0.00 | 0.01 | 0.00 | 61 | 1016.8 |
| 20260831150011 | 68 | 147 | 3.0 | 7.0 | 0.00 | 0.01 | 0.00 | 62 | 1016.9 |
| 20260831145506 | 68 | 146 | 4.0 | 7.0 | 0.00 | 0.01 | 0.00 | 61 | 1016.9 |
| 20260831145005 | 68 | 139 | 3.0 | 10.0 | 0.00 | 0.01 | 0.00 | 63 | 1016.8 |
| 20260831144504 | 67 | 130 | 4.0 | 12.0 | 0.00 | 0.01 | 0.00 | 62 | 1016.9 |
| 20260831144003 | 67 | 146 | 5.0 | 12.0 | 0.00 | 0.01 | 0.00 | 62 | 1016.8 |
| 20260831143503 | 67 | 158 | 4.0 | 11.0 | 0.00 | 0.01 | 0.00 | 63 | 1016.9 |
| 20260831143003 | 67 | 162 | 3.0 | 11.0 | 0.00 | 0.01 | 0.00 | 63 | 1016.9 |
| 20260831142503 | 67 | 114 | 6.0 | 11.0 | 0.00 | 0.01 | 0.00 | 63 | 1017.0 |
| 20260831142002 | 67 | 159 | 6.0 | 11.0 | 0.00 | 0.01 | 0.00 | 63 | 1017.0 |
| 20260831141502 | 67 | 139 | 3.0 | 9.0 | 0.00 | 0.01 | 0.00 | 64 | 1016.9 |
| 20260831141100 | 66 | 141 | 4.0 | 7.0 | 0.00 | 0.01 | 0.00 | 64 | 1016.8 |
| 20260831140558 | 66 | 123 | 1.0 | 7.0 | 0.00 | 0.01 | 0.00 | 66 | 1016.8 |
| 20260831140056 | 65 | 148 | 3.0 | 7.0 | 0.00 | 0.01 | 0.00 | 67 | 1016.8 |
| 20260831135555 | 65 | 148 | 2.0 | 10.0 | 0.00 | 0.01 | 0.00 | 69 | 1016.7 |
| 20260831135054 | 64 | 169 | 4.0 | 10.0 | 0.00 | 0.01 | 0.00 | 70 | 1016.6 |
| 20260831134554 | 63 | 180 | 2.0 | 6.0 | 0.00 | 0.01 | 0.00 | 72 | 1016.6 |
| 20260831134053 | 62 | 174 | 3.0 | 6.0 | 0.00 | 0.01 | 0.00 | 73 | 1016.6 |
| 20260831133553 | 61 | 174 | 2.0 | 5.0 | 0.00 | 0.01 | 0.00 | 75 | 1016.5 |
| 20260831133153 | 61 | 115 | 0.0 | 3.0 | 0.00 | 0.01 | 0.00 | 76 | 1016.6 |
| 20260831132553 | 60 | 162 | 0.0 | 1.0 | 0.00 | 0.01 | 0.00 | 76 | 1016.5 |
| 20260831132052 | 60 | 141 | 0.0 | 1.0 | 0.00 | 0.01 | 0.00 | 77 | 1016.4 |
| 20260831131556 | 60 | 148 | 0.0 | 2.0 | 0.00 | 0.01 | 0.00 | 77 | 1016.4 |
| 20260831131051 | 59 | 150 | 0.0 | 5.0 | 0.00 | 0.01 | 0.00 | 78 | 1016.4 |
| 20260831130551 | 59 | 200 | 1.0 | 5.0 | 0.00 | 0.01 | 0.00 | 77 | 1016.4 |
| 20260831130105 | 58 | 219 | 0.0 | 3.0 | 0.00 | 0.01 | 0.00 | 77 | 1016.3 |
| 20260831125551 | 58 | 243 | 0.0 | 0.0 | 0.00 | 0.01 | 0.00 | 77 | 1016.3 |
| 20260831125051 | 58 | 180 | 0.0 | 0.0 | 0.00 | 0.01 | 0.00 | 76 | 1016.1 |
| 20260831124550 | 59 | 180 | 0.0 | 0.0 | 0.00 | 0.01 | 0.00 | 75 | 1016.2 |
| 20260831124049 | 59 | 156 | 0.0 | 0.0 | 0.00 | 0.01 | 0.00 | 75 | 1016.1 |
| 20260831123548 | 59 | 158 | 0.0 | 1.0 | 0.00 | 0.01 | 0.00 | 76 | 1016.1 |
| 20260831123048 | 59 | 140 | 0.0 | 4.0 | 0.00 | 0.01 | 0.00 | 75 | 1016.1 |
| 20260831122548 | 60 | 234 | 1.0 | 6.0 | 0.00 | 0.01 | 0.00 | 74 | 1016.1 |
| 20260831122048 | 60 | 218 | 3.0 | 6.0 | 0.00 | 0.01 | 0.00 | 77 | 1016.1 |
| 20260831121548 | 60 | 209 | 1.0 | 5.0 | 0.00 | 0.01 | 0.00 | 77 | 1016.2 |
| 20260831121047 | 60 | 216 | 2.0 | 6.0 | 0.00 | 0.01 | 0.00 | 78 | 1016.2 |
| 20260831120547 | 60 | 212 | 3.0 | 6.0 | 0.00 | 0.01 | 0.00 | 77 | 1016.2 |
| 20260831120046 | 60 | 197 | 2.0 | 6.0 | 0.00 | 0.01 | 0.00 | 77 | 1016.4 |
| 20260831115546 | 60 | 206 | 2.0 | 3.0 | 0.00 | 0.16 | 0.00 | 77 | 1016.3 |
| 20260831115046 | 60 | 233 | 1.0 | 4.0 | 0.00 | 0.16 | 0.00 | 77 | 1016.3 |
| 20260831114546 | 60 | 234 | 1.0 | 4.0 | 0.00 | 0.16 | 0.00 | 77 | 1016.3 |
| 20260831114046 | 60 | 235 | 0.0 | 2.0 | 0.00 | 0.16 | 0.00 | 77 | 1016.3 |
| 20260831113545 | 60 | 214 | 0.0 | 5.0 | 0.00 | 0.16 | 0.00 | 77 | 1016.4 |
| 20260831113045 | 60 | 154 | 0.0 | 5.0 | 0.00 | 0.16 | 0.00 | 76 | 1016.4 |
| 20260831112544 | 60 | 151 | 1.0 | 4.0 | 0.00 | 0.16 | 0.00 | 76 | 1016.4 |
| 20260831112045 | 60 | 147 | 0.0 | 4.0 | 0.00 | 0.16 | 0.00 | 76 | 1016.4 |
| 20260831111545 | 60 | 248 | 1.0 | 3.0 | 0.00 | 0.16 | 0.00 | 78 | 1016.4 |
| 20260831111044 | 60 | 215 | 0.0 | 2.0 | 0.00 | 0.16 | 0.00 | 78 | 1016.4 |
| 20260831110543 | 60 | 221 | 0.0 | 1.0 | 0.00 | 0.16 | 0.00 | 78 | 1016.3 |
| 20260831110043 | 60 | 221 | 0.0 | 0.0 | 0.00 | 0.16 | 0.00 | 77 | 1016.3 |
| 20260831105546 | 60 | 221 | 0.0 | 0.0 | 0.00 | 0.16 | 0.00 | 77 | 1016.3 |
| 20260831105043 | 60 | 221 | 0.0 | 2.0 | 0.00 | 0.16 | 0.00 | 77 | 1016.2 |
| 20260831104543 | 61 | 219 | 0.0 | 2.0 | 0.00 | 0.16 | 0.00 | 76 | 1016.3 |
| 20260831104043 | 61 | 223 | 1.0 | 2.0 | 0.00 | 0.16 | 0.00 | 76 | 1016.3 |
| 20260831103543 | 61 | 223 | 0.0 | 2.0 | 0.00 | 0.16 | 0.00 | 76 | 1016.3 |
| 20260831103042 | 61 | 222 | 0.0 | 2.0 | 0.00 | 0.16 | 0.00 | 75 | 1016.2 |
| 20260831102541 | 61 | 221 | 1.0 | 4.0 | 0.00 | 0.16 | 0.00 | 76 | 1016.3 |
| 20260831102042 | 61 | 220 | 1.0 | 4.0 | 0.00 | 0.16 | 0.00 | 75 | 1016.2 |
| 20260831101540 | 61 | 225 | 1.0 | 4.0 | 0.00 | 0.16 | 0.00 | 76 | 1016.2 |
| 20260831101041 | 61 | 229 | 2.0 | 4.0 | 0.00 | 0.16 | 0.00 | 76 | 1016.1 |
| 20260831100540 | 60 | 213 | 1.0 | 3.0 | 0.00 | 0.16 | 0.00 | 76 | 1016.1 |
| 20260831100039 | 60 | 236 | 0.0 | 2.0 | 0.00 | 0.16 | 0.00 | 76 | 1016.1 |
| 20260831095539 | 60 | 224 | 0.0 | 0.0 | 0.00 | 0.16 | 0.00 | 76 | 1016.1 |
| 20260831095039 | 60 | 210 | 0.0 | 1.0 | 0.00 | 0.16 | 0.00 | 75 | 1016.1 |
| 20260831094539 | 60 | 208 | 0.0 | 1.0 | 0.00 | 0.16 | 0.00 | 75 | 1016.1 |
| 20260831094039 | 60 | 250 | 0.0 | 2.0 | 0.00 | 0.16 | 0.00 | 76 | 1016.0 |
| 20260831093539 | 60 | 271 | 1.0 | 2.0 | 0.00 | 0.16 | 0.00 | 76 | 1016.0 |
| 20260831093039 | 60 | 262 | 0.0 | 1.0 | 0.00 | 0.16 | 0.00 | 76 | 1016.0 |
| 20260831092538 | 60 | 262 | 0.0 | 1.0 | 0.00 | 0.16 | 0.00 | 75 | 1016.0 |
| 20260831092038 | 60 | 245 | 0.0 | 3.0 | 0.00 | 0.16 | 0.00 | 75 | 1016.0 |
| 20260831091538 | 60 | 221 | 1.0 | 3.0 | 0.00 | 0.16 | 0.00 | 76 | 1016.0 |
| 20260831091038 | 59 | 248 | 1.0 | 2.0 | 0.00 | 0.16 | 0.00 | 76 | 1016.0 |
| 20260831090537 | 59 | 276 | 1.0 | 2.0 | 0.00 | 0.16 | 0.00 | 76 | 1016.1 |
| 20260831090037 | 59 | 232 | 0.0 | 0.0 | 0.00 | 0.16 | 0.00 | 76 | 1016.0 |
| 20260831085536 | 60 | 232 | 0.0 | 0.0 | 0.00 | 0.16 | 0.00 | 75 | 1016.0 |
| 20260831085038 | 60 | 232 | 0.0 | 0.0 | 0.00 | 0.16 | 0.00 | 74 | 1015.9 |
| 20260831084533 | 61 | 232 | 0.0 | 0.0 | 0.00 | 0.16 | 0.00 | 72 | 1015.9 |
| 20260831084031 | 61 | 232 | 0.0 | 0.0 | 0.00 | 0.16 | 0.00 | 71 | 1015.9 |
| 20260831083531 | 62 | 232 | 0.0 | 0.0 | 0.00 | 0.16 | 0.00 | 70 | 1015.8 |
| 20260831083037 | 62 | 232 | 0.0 | 0.0 | 0.00 | 0.16 | 0.00 | 70 | 1016.0 |
| 20260831082530 | 61 | 232 | 0.0 | 0.0 | 0.00 | 0.16 | 0.00 | 71 | 1016.0 |
| 20260831082029 | 62 | 232 | 0.0 | 0.0 | 0.00 | 0.16 | 0.00 | 70 | 1016.0 |
| 20260831081528 | 62 | 232 | 0.0 | 2.0 | 0.00 | 0.16 | 0.00 | 69 | 1016.0 |
| 20260831081029 | 62 | 231 | 1.0 | 3.0 | 0.00 | 0.16 | 0.00 | 69 | 1016.0 |
| 20260831080527 | 62 | 237 | 1.0 | 3.0 | 0.00 | 0.16 | 0.00 | 68 | 1015.9 |
| 20260831080027 | 63 | 231 | 1.0 | 4.0 | 0.00 | 0.16 | 0.00 | 68 | 1016.1 |
| 20260831075526 | 63 | 234 | 2.0 | 5.0 | 0.00 | 0.16 | 0.00 | 68 | 1016.0 |
| 20260831075026 | 63 | 227 | 3.0 | 4.0 | 0.00 | 0.16 | 0.00 | 68 | 1016.1 |
| 20260831074526 | 63 | 222 | 0.0 | 3.0 | 0.00 | 0.16 | 0.00 | 68 | 1016.0 |
| 20260831074026 | 63 | 217 | 0.0 | 4.0 | 0.00 | 0.16 | 0.00 | 68 | 1016.1 |
| 20260831073526 | 63 | 200 | 0.0 | 4.0 | 0.00 | 0.16 | 0.00 | 68 | 1016.1 |
| 20260831073025 | 63 | 234 | 1.0 | 5.0 | 0.00 | 0.16 | 0.00 | 68 | 1016.2 |
| 20260831072524 | 63 | 216 | 1.0 | 4.0 | 0.00 | 0.16 | 0.00 | 68 | 1016.2 |
| 20260831072024 | 63 | 212 | 1.0 | 4.0 | 0.00 | 0.16 | 0.00 | 68 | 1016.2 |
| 20260831071523 | 63 | 210 | 1.0 | 4.0 | 0.00 | 0.16 | 0.00 | 68 | 1016.2 |
| 20260831071023 | 62 | 217 | 1.0 | 4.0 | 0.00 | 0.16 | 0.00 | 69 | 1016.2 |
| 20260831070522 | 62 | 215 | 0.0 | 2.0 | 0.00 | 0.16 | 0.00 | 69 | 1016.2 |
| 20260831070026 | 62 | 224 | 0.0 | 2.0 | 0.00 | 0.16 | 0.00 | 70 | 1016.1 |
| 20260831065519 | 63 | 148 | 0.0 | 3.0 | 0.00 | 0.16 | 0.00 | 69 | 1016.1 |
| 20260831065019 | 63 | 146 | 1.0 | 3.0 | 0.00 | 0.16 | 0.00 | 69 | 1016.1 |
| 20260831064518 | 63 | 202 | 0.0 | 2.0 | 0.00 | 0.16 | 0.00 | 68 | 1016.0 |
| 20260831064017 | 64 | 155 | 0.0 | 2.0 | 0.00 | 0.16 | 0.00 | 67 | 1016.1 |
| 20260831063515 | 64 | 218 | 0.0 | 2.0 | 0.00 | 0.16 | 0.00 | 67 | 1016.0 |
| 20260831063015 | 64 | 217 | 0.0 | 3.0 | 0.00 | 0.16 | 0.00 | 67 | 1016.0 |
| 20260831062514 | 64 | 217 | 1.0 | 3.0 | 0.00 | 0.16 | 0.00 | 68 | 1016.0 |
| 20260831062013 | 64 | 250 | 1.0 | 3.0 | 0.00 | 0.16 | 0.00 | 68 | 1016.1 |
| 20260831061512 | 64 | 245 | 1.0 | 4.0 | 0.00 | 0.16 | 0.00 | 68 | 1016.1 |
| 20260831061011 | 64 | 240 | 2.0 | 4.0 | 0.00 | 0.16 | 0.00 | 67 | 1016.2 |
| 20260831060509 | 64 | 221 | 2.0 | 5.0 | 0.00 | 0.16 | 0.00 | 67 | 1016.2 |
| 20260831060009 | 64 | 217 | 1.0 | 5.0 | 0.00 | 0.16 | 0.16 | 66 | 1016.3 |
| 20260831055507 | 64 | 215 | 2.0 | 5.0 | 0.00 | 0.16 | 0.16 | 67 | 1016.2 |
| 20260831055007 | 64 | 210 | 3.0 | 5.0 | 0.00 | 0.16 | 0.16 | 67 | 1016.2 |
| 20260831054507 | 64 | 231 | 2.0 | 4.0 | 0.00 | 0.16 | 0.16 | 68 | 1016.2 |
| 20260831054007 | 64 | 226 | 1.0 | 3.0 | 0.00 | 0.16 | 0.16 | 68 | 1016.3 |
| 20260831053507 | 64 | 210 | 1.0 | 3.0 | 0.00 | 0.16 | 0.16 | 68 | 1016.3 |
| 20260831053007 | 64 | 213 | 1.0 | 3.0 | 0.00 | 0.16 | 0.16 | 67 | 1016.4 |
| 20260831052507 | 64 | 223 | 1.0 | 4.0 | 0.00 | 0.16 | 0.16 | 68 | 1016.3 |
| 20260831052006 | 64 | 221 | 1.0 | 5.0 | 0.00 | 0.16 | 0.16 | 68 | 1016.3 |
| 20260831051506 | 64 | 212 | 3.0 | 5.0 | 0.00 | 0.16 | 0.16 | 70 | 1016.4 |
| 20260831051006 | 63 | 215 | 2.0 | 4.0 | 0.00 | 0.16 | 0.16 | 73 | 1016.3 |
| 20260831050506 | 63 | 219 | 0.0 | 2.0 | 0.00 | 0.16 | 0.16 | 74 | 1016.3 |
| 20260831050006 | 64 | 153 | 0.0 | 2.0 | 0.00 | 0.20 | 0.16 | 73 | 1016.3 |
| 20260831045509 | 64 | 138 | 0.0 | 2.0 | 0.00 | 0.20 | 0.16 | 72 | 1016.3 |
| 20260831045006 | 65 | 235 | 0.0 | 0.0 | 0.00 | 0.20 | 0.16 | 71 | 1016.2 |
| 20260831044506 | 65 | 235 | 0.0 | 0.0 | 0.00 | 0.20 | 0.16 | 70 | 1016.0 |
| 20260831044005 | 65 | 235 | 0.0 | 1.0 | 0.00 | 0.20 | 0.16 | 69 | 1016.0 |
| 20260831043507 | 65 | 242 | 0.0 | 2.0 | 0.00 | 0.20 | 0.16 | 69 | 1015.9 |
| 20260831043005 | 66 | 262 | 1.0 | 2.0 | 0.00 | 0.20 | 0.16 | 69 | 1015.8 |
| 20260831042507 | 66 | 250 | 0.0 | 2.0 | 0.00 | 0.20 | 0.16 | 69 | 1015.8 |
| 20260831042006 | 66 | 240 | 1.0 | 2.0 | 0.00 | 0.20 | 0.16 | 69 | 1015.9 |
| 20260831041509 | 66 | 255 | 0.0 | 2.0 | 0.00 | 0.20 | 0.16 | 69 | 1015.9 |
| 20260831041007 | 66 | 262 | 0.0 | 2.0 | 0.00 | 0.20 | 0.16 | 68 | 1015.9 |
| 20260831040504 | 66 | 252 | 1.0 | 3.0 | 0.00 | 0.20 | 0.16 | 67 | 1015.8 |
| 20260831040004 | 66 | 253 | 1.0 | 3.0 | 0.00 | 0.20 | 0.16 | 66 | 1015.9 |
| 20260831035506 | 67 | 251 | 0.0 | 3.0 | 0.00 | 0.20 | 0.16 | 66 | 1015.9 |
| 20260831035001 | 67 | 240 | 1.0 | 5.0 | 0.00 | 0.20 | 0.16 | 66 | 1015.8 |
| 20260831034501 | 67 | 237 | 2.0 | 5.0 | 0.00 | 0.20 | 0.16 | 65 | 1015.8 |
| 20260831034100 | 67 | 223 | 2.0 | 5.0 | 0.00 | 0.20 | 0.16 | 65 | 1015.7 |
| 20260831033702 | 67 | 209 | 2.0 | 5.0 | 0.00 | 0.20 | 0.16 | 66 | 1015.7 |
| 20260831033100 | 67 | 214 | 2.0 | 3.0 | 0.00 | 0.20 | 0.16 | 65 | 1015.7 |
| 20260831032600 | 67 | 205 | 1.0 | 2.0 | 0.00 | 0.20 | 0.16 | 64 | 1015.6 |
| 20260831032102 | 68 | 146 | 0.0 | 2.0 | 0.00 | 0.20 | 0.16 | 62 | 1015.6 |
| 20260831031559 | 68 | 149 | 0.0 | 0.0 | 0.00 | 0.20 | 0.16 | 61 | 1015.5 |
| 20260831031059 | 68 | 149 | 0.0 | 3.0 | 0.00 | 0.20 | 0.16 | 60 | 1015.4 |
| 20260831030701 | 69 | 139 | 0.0 | 3.0 | 0.00 | 0.20 | 0.16 | 59 | 1015.4 |
| 20260831030105 | 69 | 258 | 0.0 | 3.0 | 0.00 | 0.20 | 0.16 | 58 | 1015.3 |
| 20260831025558 | 70 | 278 | 1.0 | 3.0 | 0.00 | 0.20 | 0.16 | 57 | 1015.3 |
| 20260831025058 | 70 | 242 | 0.0 | 2.0 | 0.00 | 0.20 | 0.16 | 56 | 1015.2 |
| 20260831024618 | 70 | 241 | 1.0 | 3.0 | 0.00 | 0.20 | 0.16 | 55 | 1015.2 |
| 20260831024057 | 70 | 263 | 1.0 | 3.0 | 0.00 | 0.20 | 0.16 | 55 | 1015.1 |
| 20260831023557 | 70 | 30 | 0.0 | 0.0 | 0.00 | 0.20 | 0.16 | 54 | 1015.1 |
| 20260831023057 | 71 | 30 | 0.0 | 0.0 | 0.00 | 0.20 | 0.16 | 53 | 1015.1 |
| 20260831022557 | 71 | 30 | 0.0 | 0.0 | 0.00 | 0.20 | 0.16 | 52 | 1015.0 |
| 20260831022057 | 71 | 30 | 0.0 | 0.0 | 0.00 | 0.20 | 0.16 | 51 | 1015.0 |
| 20260831021557 | 72 | 30 | 0.0 | 0.0 | 0.00 | 0.20 | 0.16 | 48 | 1014.9 |
| 20260831021057 | 72 | 30 | 0.0 | 0.0 | 0.00 | 0.20 | 0.16 | 48 | 1014.8 |
| 20260831020600 | 73 | 30 | 0.0 | 0.0 | 0.00 | 0.20 | 0.16 | 47 | 1014.7 |
| 20260831020056 | 73 | 30 | 0.0 | 1.0 | 0.00 | 0.20 | 0.16 | 47 | 1014.8 |
| 20260831015555 | 74 | 37 | 0.0 | 3.0 | 0.00 | 0.24 | 0.16 | 46 | 1014.8 |
| 20260831015057 | 74 | 350 | 0.0 | 5.0 | 0.00 | 0.24 | 0.16 | 46 | 1014.8 |
| 20260831014556 | 75 | 36 | 1.0 | 7.0 | 0.00 | 0.24 | 0.16 | 45 | 1014.7 |
| 20260831014056 | 75 | 335 | 3.0 | 7.0 | 0.00 | 0.24 | 0.16 | 44 | 1014.6 |